sensor_id;sensor_type;location;lat;lon;timestamp;temperature;humidity
5392;DHT22;2719;53.624;9.786;2024-03-07T00:00:22;6.70;99.90
5392;DHT22;2719;53.624;9.786;2024-03-07T00:02:50;6.60;1.00
5392;DHT22;2719;53.624;9.786;2024-03-07T00:05:19;6.50;1.00
5392;DHT22;2719;53.624;9.786;2024-03-07T00:07:46;6.50;1.00
5392;DHT22;2719;53.624;9.786;2024-03-07T00:10:13;6.40;1.00
5392;DHT22;2719;53.624;9.786;2024-03-07T00:12:40;6.50;1.00
5392;DHT22;2719;53.624;9.786;2024-03-07T00:15:08;6.50;1.00
5392;DHT22;2719;53.624;9.786;2024-03-07T00:17:36;6.50;1.00
5392;DHT22;2719;53.624;9.786;2024-03-07T00:20:04;6.50;7.40
5392;DHT22;2719;53.624;9.786;2024-03-07T00:22:35;6.60;67.40
5392;DHT22;2719;53.624;9.786;2024-03-07T00:25:02;6.50;79.10
5392;DHT22;2719;53.624;9.786;2024-03-07T00:27:30;6.50;89.40
5392;DHT22;2719;53.624;9.786;2024-03-07T00:29:57;6.50;99.90
5392;DHT22;2719;53.624;9.786;2024-03-07T00:32:24;6.60;99.90
5392;DHT22;2719;53.624;9.786;2024-03-07T00:34:52;6.40;99.90
5392;DHT22;2719;53.624;9.786;2024-03-07T00:37:19;6.50;1.00
5392;DHT22;2719;53.624;9.786;2024-03-07T00:39:47;6.50;1.00
5392;DHT22;2719;53.624;9.786;2024-03-07T00:42:13;6.30;1.00
5392;DHT22;2719;53.624;9.786;2024-03-07T00:44:40;6.30;1.00
5392;DHT22;2719;53.624;9.786;2024-03-07T00:47:06;6.30;99.90
5392;DHT22;2719;53.624;9.786;2024-03-07T00:49:33;6.40;99.90
5392;DHT22;2719;53.624;9.786;2024-03-07T00:52:00;6.30;8.60
5392;DHT22;2719;53.624;9.786;2024-03-07T00:54:27;6.20;1.00
5392;DHT22;2719;53.624;9.786;2024-03-07T00:56:54;6.40;99.90
5392;DHT22;2719;53.624;9.786;2024-03-07T00:59:21;6.30;1.00
5392;DHT22;2719;53.624;9.786;2024-03-07T01:01:48;6.30;1.00
5392;DHT22;2719;53.624;9.786;2024-03-07T01:04:15;6.20;1.00
5392;DHT22;2719;53.624;9.786;2024-03-07T01:06:43;6.20;1.00
5392;DHT22;2719;53.624;9.786;2024-03-07T01:09:09;6.20;1.00
5392;DHT22;2719;53.624;9.786;2024-03-07T01:11:40;6.20;1.00
5392;DHT22;2719;53.624;9.786;2024-03-07T01:14:08;6.30;99.90
5392;DHT22;2719;53.624;9.786;2024-03-07T01:16:34;6.30;85.80
5392;DHT22;2719;53.624;9.786;2024-03-07T01:19:01;6.40;99.90
5392;DHT22;2719;53.624;9.786;2024-03-07T01:21:31;6.30;99.90
5392;DHT22;2719;53.624;9.786;2024-03-07T01:23:58;6.40;99.90
5392;DHT22;2719;53.624;9.786;2024-03-07T01:26:25;6.40;99.90
5392;DHT22;2719;53.624;9.786;2024-03-07T01:28:52;6.40;99.90
5392;DHT22;2719;53.624;9.786;2024-03-07T01:31:21;6.40;99.90
5392;DHT22;2719;53.624;9.786;2024-03-07T01:33:48;6.30;99.90
5392;DHT22;2719;53.624;9.786;2024-03-07T01:36:14;6.40;1.00
5392;DHT22;2719;53.624;9.786;2024-03-07T01:38:41;6.50;99.90
5392;DHT22;2719;53.624;9.786;2024-03-07T01:41:08;6.40;99.90
5392;DHT22;2719;53.624;9.786;2024-03-07T01:43:35;6.40;99.90
5392;DHT22;2719;53.624;9.786;2024-03-07T01:46:02;6.50;99.90
5392;DHT22;2719;53.624;9.786;2024-03-07T01:48:31;6.50;99.90
5392;DHT22;2719;53.624;9.786;2024-03-07T01:50:59;6.50;99.90
5392;DHT22;2719;53.624;9.786;2024-03-07T01:53:26;6.50;99.90
5392;DHT22;2719;53.624;9.786;2024-03-07T01:55:53;6.40;1.00
5392;DHT22;2719;53.624;9.786;2024-03-07T01:58:21;6.40;1.00
5392;DHT22;2719;53.624;9.786;2024-03-07T02:00:47;6.30;1.00
5392;DHT22;2719;53.624;9.786;2024-03-07T02:03:14;6.30;1.00
5392;DHT22;2719;53.624;9.786;2024-03-07T02:05:42;6.30;1.00
5392;DHT22;2719;53.624;9.786;2024-03-07T02:08:09;6.40;1.00
5392;DHT22;2719;53.624;9.786;2024-03-07T02:10:35;6.40;1.00
5392;DHT22;2719;53.624;9.786;2024-03-07T02:13:02;6.20;1.00
5392;DHT22;2719;53.624;9.786;2024-03-07T02:15:29;6.20;1.00
5392;DHT22;2719;53.624;9.786;2024-03-07T02:17:55;6.30;1.00
5392;DHT22;2719;53.624;9.786;2024-03-07T02:20:23;6.30;1.00
5392;DHT22;2719;53.624;9.786;2024-03-07T02:22:51;6.30;1.00
5392;DHT22;2719;53.624;9.786;2024-03-07T02:25:17;6.20;1.00
5392;DHT22;2719;53.624;9.786;2024-03-07T02:27:45;6.20;1.00
5392;DHT22;2719;53.624;9.786;2024-03-07T02:30:12;6.20;1.00
5392;DHT22;2719;53.624;9.786;2024-03-07T02:32:40;6.10;1.00
5392;DHT22;2719;53.624;9.786;2024-03-07T02:35:07;6.20;1.00
5392;DHT22;2719;53.624;9.786;2024-03-07T02:37:34;6.30;1.00
5392;DHT22;2719;53.624;9.786;2024-03-07T02:40:03;6.30;1.00
5392;DHT22;2719;53.624;9.786;2024-03-07T02:42:30;6.20;1.00
5392;DHT22;2719;53.624;9.786;2024-03-07T02:44:57;6.10;1.00
5392;DHT22;2719;53.624;9.786;2024-03-07T02:47:24;6.00;1.00
5392;DHT22;2719;53.624;9.786;2024-03-07T02:49:51;6.00;1.00
5392;DHT22;2719;53.624;9.786;2024-03-07T02:52:17;6.00;1.00
5392;DHT22;2719;53.624;9.786;2024-03-07T02:54:44;6.10;1.00
5392;DHT22;2719;53.624;9.786;2024-03-07T02:57:12;6.00;1.00
5392;DHT22;2719;53.624;9.786;2024-03-07T02:59:38;6.00;1.00
5392;DHT22;2719;53.624;9.786;2024-03-07T03:02:05;6.00;1.00
5392;DHT22;2719;53.624;9.786;2024-03-07T03:04:32;5.90;1.00
5392;DHT22;2719;53.624;9.786;2024-03-07T03:06:58;6.10;1.00
5392;DHT22;2719;53.624;9.786;2024-03-07T03:09:25;6.10;1.00
5392;DHT22;2719;53.624;9.786;2024-03-07T03:11:53;6.00;1.00
5392;DHT22;2719;53.624;9.786;2024-03-07T03:14:21;6.00;1.00
5392;DHT22;2719;53.624;9.786;2024-03-07T03:16:47;5.90;1.00
5392;DHT22;2719;53.624;9.786;2024-03-07T03:19:14;5.90;1.00
5392;DHT22;2719;53.624;9.786;2024-03-07T03:21:41;5.90;1.00
5392;DHT22;2719;53.624;9.786;2024-03-07T03:24:08;5.90;1.00
5392;DHT22;2719;53.624;9.786;2024-03-07T03:26:34;5.80;1.00
5392;DHT22;2719;53.624;9.786;2024-03-07T03:29:01;5.90;1.00
5392;DHT22;2719;53.624;9.786;2024-03-07T03:31:29;5.90;1.00
5392;DHT22;2719;53.624;9.786;2024-03-07T03:33:56;6.00;1.00
5392;DHT22;2719;53.624;9.786;2024-03-07T03:36:22;6.00;1.00
5392;DHT22;2719;53.624;9.786;2024-03-07T03:38:50;6.00;1.00
5392;DHT22;2719;53.624;9.786;2024-03-07T03:41:17;6.10;1.00
5392;DHT22;2719;53.624;9.786;2024-03-07T03:43:44;6.10;1.00
5392;DHT22;2719;53.624;9.786;2024-03-07T03:46:10;6.00;1.00
5392;DHT22;2719;53.624;9.786;2024-03-07T03:48:39;6.10;1.00
5392;DHT22;2719;53.624;9.786;2024-03-07T03:51:07;6.10;1.00
5392;DHT22;2719;53.624;9.786;2024-03-07T03:53:34;6.10;1.00
5392;DHT22;2719;53.624;9.786;2024-03-07T03:56:02;6.10;1.00
5392;DHT22;2719;53.624;9.786;2024-03-07T03:58:30;6.00;1.00
5392;DHT22;2719;53.624;9.786;2024-03-07T04:00:56;5.90;1.00
5392;DHT22;2719;53.624;9.786;2024-03-07T04:03:24;6.00;1.00
5392;DHT22;2719;53.624;9.786;2024-03-07T04:05:52;5.90;99.90
5392;DHT22;2719;53.624;9.786;2024-03-07T04:08:18;5.90;99.90
5392;DHT22;2719;53.624;9.786;2024-03-07T04:10:46;5.70;1.00
5392;DHT22;2719;53.624;9.786;2024-03-07T04:13:13;5.70;1.00
5392;DHT22;2719;53.624;9.786;2024-03-07T04:15:40;5.70;1.00
5392;DHT22;2719;53.624;9.786;2024-03-07T04:18:06;5.70;99.90
5392;DHT22;2719;53.624;9.786;2024-03-07T04:20:33;5.60;99.90
5392;DHT22;2719;53.624;9.786;2024-03-07T04:23:01;5.60;99.90
5392;DHT22;2719;53.624;9.786;2024-03-07T04:25:29;5.40;99.90
5392;DHT22;2719;53.624;9.786;2024-03-07T04:27:57;5.40;99.90
5392;DHT22;2719;53.624;9.786;2024-03-07T04:30:23;5.30;99.90
5392;DHT22;2719;53.624;9.786;2024-03-07T04:32:50;5.30;99.90
5392;DHT22;2719;53.624;9.786;2024-03-07T04:35:17;5.20;99.90
5392;DHT22;2719;53.624;9.786;2024-03-07T04:37:44;5.20;99.90
5392;DHT22;2719;53.624;9.786;2024-03-07T04:40:12;5.20;99.90
5392;DHT22;2719;53.624;9.786;2024-03-07T04:42:42;5.10;99.90
5392;DHT22;2719;53.624;9.786;2024-03-07T04:45:10;5.10;99.90
5392;DHT22;2719;53.624;9.786;2024-03-07T04:47:38;5.10;1.00
5392;DHT22;2719;53.624;9.786;2024-03-07T04:50:05;5.00;18.90
5392;DHT22;2719;53.624;9.786;2024-03-07T04:52:33;5.00;91.80
5392;DHT22;2719;53.624;9.786;2024-03-07T04:55:00;4.90;99.90
5392;DHT22;2719;53.624;9.786;2024-03-07T04:57:27;4.90;99.90
5392;DHT22;2719;53.624;9.786;2024-03-07T04:59:54;4.70;1.00
5392;DHT22;2719;53.624;9.786;2024-03-07T05:02:21;4.50;1.00
5392;DHT22;2719;53.624;9.786;2024-03-07T05:04:49;4.50;99.90
5392;DHT22;2719;53.624;9.786;2024-03-07T05:07:17;4.50;99.90
5392;DHT22;2719;53.624;9.786;2024-03-07T05:09:44;4.50;99.90
5392;DHT22;2719;53.624;9.786;2024-03-07T05:12:11;4.30;1.00
5392;DHT22;2719;53.624;9.786;2024-03-07T05:14:39;4.20;1.00
5392;DHT22;2719;53.624;9.786;2024-03-07T05:17:05;4.20;99.90
5392;DHT22;2719;53.624;9.786;2024-03-07T05:19:34;4.20;1.00
5392;DHT22;2719;53.624;9.786;2024-03-07T05:22:01;4.20;91.20
5392;DHT22;2719;53.624;9.786;2024-03-07T05:24:30;4.30;99.90
5392;DHT22;2719;53.624;9.786;2024-03-07T05:26:58;4.40;22.20
5392;DHT22;2719;53.624;9.786;2024-03-07T05:29:24;4.40;78.20
5392;DHT22;2719;53.624;9.786;2024-03-07T05:31:52;4.50;99.90
5392;DHT22;2719;53.624;9.786;2024-03-07T05:34:19;4.40;99.90
5392;DHT22;2719;53.624;9.786;2024-03-07T05:36:48;4.60;99.90
5392;DHT22;2719;53.624;9.786;2024-03-07T05:39:16;4.70;1.00
5392;DHT22;2719;53.624;9.786;2024-03-07T05:41:44;4.70;99.90
5392;DHT22;2719;53.624;9.786;2024-03-07T05:44:11;4.70;1.00
5392;DHT22;2719;53.624;9.786;2024-03-07T05:46:38;4.70;99.90
5392;DHT22;2719;53.624;9.786;2024-03-07T05:49:08;4.80;45.20
5392;DHT22;2719;53.624;9.786;2024-03-07T05:51:35;4.80;99.90
5392;DHT22;2719;53.624;9.786;2024-03-07T05:54:01;4.80;99.90
5392;DHT22;2719;53.624;9.786;2024-03-07T05:56:32;4.80;99.90
5392;DHT22;2719;53.624;9.786;2024-03-07T05:59:01;4.70;1.00
5392;DHT22;2719;53.624;9.786;2024-03-07T06:01:29;4.60;1.00
5392;DHT22;2719;53.624;9.786;2024-03-07T06:03:59;4.60;27.50
5392;DHT22;2719;53.624;9.786;2024-03-07T06:06:28;4.50;31.20
5392;DHT22;2719;53.624;9.786;2024-03-07T06:08:57;4.30;99.90
5392;DHT22;2719;53.624;9.786;2024-03-07T06:11:23;4.30;1.00
5392;DHT22;2719;53.624;9.786;2024-03-07T06:13:51;4.30;35.20
5392;DHT22;2719;53.624;9.786;2024-03-07T06:16:18;4.30;99.90
5392;DHT22;2719;53.624;9.786;2024-03-07T06:18:45;4.20;1.00
5392;DHT22;2719;53.624;9.786;2024-03-07T06:21:12;4.20;3.80
5392;DHT22;2719;53.624;9.786;2024-03-07T06:23:41;4.00;99.90
5392;DHT22;2719;53.624;9.786;2024-03-07T06:26:13;4.20;56.20
5392;DHT22;2719;53.624;9.786;2024-03-07T06:28:42;4.20;99.90
5392;DHT22;2719;53.624;9.786;2024-03-07T06:31:08;4.30;1.00
5392;DHT22;2719;53.624;9.786;2024-03-07T06:33:35;4.30;1.00
5392;DHT22;2719;53.624;9.786;2024-03-07T06:36:03;4.40;99.90
5392;DHT22;2719;53.624;9.786;2024-03-07T06:38:30;4.20;1.00
5392;DHT22;2719;53.624;9.786;2024-03-07T06:40:58;4.20;1.00
5392;DHT22;2719;53.624;9.786;2024-03-07T06:43:24;4.20;1.00
5392;DHT22;2719;53.624;9.786;2024-03-07T06:45:51;4.20;1.00
5392;DHT22;2719;53.624;9.786;2024-03-07T06:48:18;4.20;1.00
5392;DHT22;2719;53.624;9.786;2024-03-07T06:50:44;4.20;99.90
5392;DHT22;2719;53.624;9.786;2024-03-07T06:53:11;4.00;1.00
5392;DHT22;2719;53.624;9.786;2024-03-07T06:55:38;4.00;1.00
5392;DHT22;2719;53.624;9.786;2024-03-07T06:58:06;4.00;1.00
5392;DHT22;2719;53.624;9.786;2024-03-07T07:00:32;3.80;1.00
5392;DHT22;2719;53.624;9.786;2024-03-07T07:03:01;3.90;1.00
5392;DHT22;2719;53.624;9.786;2024-03-07T07:05:30;4.00;1.00
5392;DHT22;2719;53.624;9.786;2024-03-07T07:07:56;3.90;1.00
5392;DHT22;2719;53.624;9.786;2024-03-07T07:10:23;4.00;99.90
5392;DHT22;2719;53.624;9.786;2024-03-07T07:12:50;4.10;99.90
5392;DHT22;2719;53.624;9.786;2024-03-07T07:15:21;4.10;1.00
5392;DHT22;2719;53.624;9.786;2024-03-07T07:17:48;4.20;52.10
5392;DHT22;2719;53.624;9.786;2024-03-07T07:20:16;4.20;99.90
5392;DHT22;2719;53.624;9.786;2024-03-07T07:22:44;4.30;99.90
5392;DHT22;2719;53.624;9.786;2024-03-07T07:25:11;4.30;1.00
5392;DHT22;2719;53.624;9.786;2024-03-07T07:27:40;4.20;99.90
5392;DHT22;2719;53.624;9.786;2024-03-07T07:30:09;4.30;99.90
5392;DHT22;2719;53.624;9.786;2024-03-07T07:32:37;4.40;99.90
5392;DHT22;2719;53.624;9.786;2024-03-07T07:35:05;4.20;1.00
5392;DHT22;2719;53.624;9.786;2024-03-07T07:37:35;4.40;1.00
5392;DHT22;2719;53.624;9.786;2024-03-07T07:40:02;4.40;1.00
5392;DHT22;2719;53.624;9.786;2024-03-07T07:42:29;4.40;1.00
5392;DHT22;2719;53.624;9.786;2024-03-07T07:44:55;4.40;1.00
5392;DHT22;2719;53.624;9.786;2024-03-07T07:47:22;4.30;1.00
5392;DHT22;2719;53.624;9.786;2024-03-07T07:49:50;4.30;1.00
5392;DHT22;2719;53.624;9.786;2024-03-07T07:52:16;4.20;1.00
5392;DHT22;2719;53.624;9.786;2024-03-07T07:54:43;4.20;1.00
5392;DHT22;2719;53.624;9.786;2024-03-07T07:57:10;4.30;1.00
5392;DHT22;2719;53.624;9.786;2024-03-07T07:59:36;4.40;1.00
5392;DHT22;2719;53.624;9.786;2024-03-07T08:02:03;4.40;1.00
5392;DHT22;2719;53.624;9.786;2024-03-07T08:04:31;4.40;1.00
5392;DHT22;2719;53.624;9.786;2024-03-07T08:07:00;4.50;1.00
5392;DHT22;2719;53.624;9.786;2024-03-07T08:09:27;4.60;1.00
5392;DHT22;2719;53.624;9.786;2024-03-07T08:11:55;4.80;99.90
5392;DHT22;2719;53.624;9.786;2024-03-07T08:14:21;4.60;99.90
5392;DHT22;2719;53.624;9.786;2024-03-07T08:16:49;4.40;99.90
5392;DHT22;2719;53.624;9.786;2024-03-07T08:19:16;4.60;99.90
5392;DHT22;2719;53.624;9.786;2024-03-07T08:21:43;4.60;99.90
5392;DHT22;2719;53.624;9.786;2024-03-07T08:24:11;4.50;99.90
5392;DHT22;2719;53.624;9.786;2024-03-07T08:26:37;4.60;99.90
5392;DHT22;2719;53.624;9.786;2024-03-07T08:29:09;4.50;99.90
5392;DHT22;2719;53.624;9.786;2024-03-07T08:31:36;4.50;99.90
5392;DHT22;2719;53.624;9.786;2024-03-07T08:34:03;4.60;99.90
5392;DHT22;2719;53.624;9.786;2024-03-07T08:36:29;4.70;99.90
5392;DHT22;2719;53.624;9.786;2024-03-07T08:38:56;4.80;99.90
5392;DHT22;2719;53.624;9.786;2024-03-07T08:41:24;4.70;99.90
5392;DHT22;2719;53.624;9.786;2024-03-07T08:43:51;4.70;99.90
5392;DHT22;2719;53.624;9.786;2024-03-07T08:46:17;4.70;99.90
5392;DHT22;2719;53.624;9.786;2024-03-07T08:48:44;4.80;99.90
5392;DHT22;2719;53.624;9.786;2024-03-07T08:51:11;4.60;99.90
5392;DHT22;2719;53.624;9.786;2024-03-07T08:53:37;4.80;99.90
5392;DHT22;2719;53.624;9.786;2024-03-07T08:56:04;4.80;99.90
5392;DHT22;2719;53.624;9.786;2024-03-07T08:58:32;4.90;66.10
5392;DHT22;2719;53.624;9.786;2024-03-07T09:00:59;5.00;99.90
5392;DHT22;2719;53.624;9.786;2024-03-07T09:03:25;5.20;90.60
5392;DHT22;2719;53.624;9.786;2024-03-07T09:05:52;5.20;28.50
5392;DHT22;2719;53.624;9.786;2024-03-07T09:08:19;5.00;49.10
5392;DHT22;2719;53.624;9.786;2024-03-07T09:10:46;5.00;30.50
5392;DHT22;2719;53.624;9.786;2024-03-07T09:13:12;5.00;42.90
5392;DHT22;2719;53.624;9.786;2024-03-07T09:15:41;5.00;43.60
5392;DHT22;2719;53.624;9.786;2024-03-07T09:18:07;4.80;51.90
5392;DHT22;2719;53.624;9.786;2024-03-07T09:20:34;5.00;86.70
5392;DHT22;2719;53.624;9.786;2024-03-07T09:23:02;5.10;8.60
5392;DHT22;2719;53.624;9.786;2024-03-07T09:25:28;5.20;1.00
5392;DHT22;2719;53.624;9.786;2024-03-07T09:27:58;5.40;58.10
5392;DHT22;2719;53.624;9.786;2024-03-07T09:30:25;5.70;1.00
5392;DHT22;2719;53.624;9.786;2024-03-07T09:32:54;5.70;1.00
5392;DHT22;2719;53.624;9.786;2024-03-07T09:35:21;5.70;1.00
5392;DHT22;2719;53.624;9.786;2024-03-07T09:37:48;5.60;1.00
5392;DHT22;2719;53.624;9.786;2024-03-07T09:40:15;5.40;1.00
5392;DHT22;2719;53.624;9.786;2024-03-07T09:42:43;5.60;1.00
5392;DHT22;2719;53.624;9.786;2024-03-07T09:45:14;5.70;1.00
5392;DHT22;2719;53.624;9.786;2024-03-07T09:47:42;5.60;1.00
5392;DHT22;2719;53.624;9.786;2024-03-07T09:50:12;5.60;1.00
5392;DHT22;2719;53.624;9.786;2024-03-07T09:52:41;5.60;1.00
5392;DHT22;2719;53.624;9.786;2024-03-07T09:55:10;5.50;1.00
5392;DHT22;2719;53.624;9.786;2024-03-07T09:57:38;5.60;1.00
5392;DHT22;2719;53.624;9.786;2024-03-07T10:00:07;5.40;1.00
5392;DHT22;2719;53.624;9.786;2024-03-07T10:02:36;5.40;1.00
5392;DHT22;2719;53.624;9.786;2024-03-07T10:05:08;5.50;99.90
5392;DHT22;2719;53.624;9.786;2024-03-07T10:07:40;5.60;1.00
5392;DHT22;2719;53.624;9.786;2024-03-07T10:10:08;5.40;1.00
5392;DHT22;2719;53.624;9.786;2024-03-07T10:12:37;5.50;12.10
5392;DHT22;2719;53.624;9.786;2024-03-07T10:15:05;5.50;26.90
5392;DHT22;2719;53.624;9.786;2024-03-07T10:17:35;5.50;39.20
5392;DHT22;2719;53.624;9.786;2024-03-07T10:20:02;5.40;98.90
5392;DHT22;2719;53.624;9.786;2024-03-07T10:22:29;5.50;65.40
5392;DHT22;2719;53.624;9.786;2024-03-07T10:24:57;5.50;14.20
5392;DHT22;2719;53.624;9.786;2024-03-07T10:27:25;5.50;59.40
5392;DHT22;2719;53.624;9.786;2024-03-07T10:29:52;5.40;91.50
5392;DHT22;2719;53.624;9.786;2024-03-07T10:32:19;5.30;99.90
5392;DHT22;2719;53.624;9.786;2024-03-07T10:34:46;5.30;99.90
5392;DHT22;2719;53.624;9.786;2024-03-07T10:37:14;5.30;99.90
5392;DHT22;2719;53.624;9.786;2024-03-07T10:39:43;5.00;99.90
5392;DHT22;2719;53.624;9.786;2024-03-07T10:42:14;4.90;99.90
5392;DHT22;2719;53.624;9.786;2024-03-07T10:44:44;4.90;99.90
5392;DHT22;2719;53.624;9.786;2024-03-07T10:47:15;4.90;1.00
5392;DHT22;2719;53.624;9.786;2024-03-07T10:49:50;5.00;99.90
5392;DHT22;2719;53.624;9.786;2024-03-07T10:52:26;5.10;99.90
5392;DHT22;2719;53.624;9.786;2024-03-07T10:55:04;5.20;99.90
5392;DHT22;2719;53.624;9.786;2024-03-07T10:57:46;5.00;99.90
5392;DHT22;2719;53.624;9.786;2024-03-07T11:00:14;5.10;1.00
5392;DHT22;2719;53.624;9.786;2024-03-07T11:02:55;5.20;1.00
5392;DHT22;2719;53.624;9.786;2024-03-07T11:05:25;5.30;99.90
5392;DHT22;2719;53.624;9.786;2024-03-07T11:07:56;5.30;99.90
5392;DHT22;2719;53.624;9.786;2024-03-07T11:10:23;5.30;1.00
5392;DHT22;2719;53.624;9.786;2024-03-07T11:12:52;5.40;1.00
5392;DHT22;2719;53.624;9.786;2024-03-07T11:15:19;5.40;1.00
5392;DHT22;2719;53.624;9.786;2024-03-07T11:17:48;5.60;1.00
5392;DHT22;2719;53.624;9.786;2024-03-07T11:20:20;5.60;99.90
5392;DHT22;2719;53.624;9.786;2024-03-07T11:22:47;5.70;99.90
5392;DHT22;2719;53.624;9.786;2024-03-07T11:25:17;5.70;99.90
5392;DHT22;2719;53.624;9.786;2024-03-07T11:27:52;5.80;99.90
5392;DHT22;2719;53.624;9.786;2024-03-07T11:30:21;5.80;99.90
5392;DHT22;2719;53.624;9.786;2024-03-07T11:32:49;5.70;99.90
5392;DHT22;2719;53.624;9.786;2024-03-07T11:35:19;5.80;99.90
5392;DHT22;2719;53.624;9.786;2024-03-07T11:37:56;6.00;99.90
5392;DHT22;2719;53.624;9.786;2024-03-07T11:40:45;5.90;99.90
5392;DHT22;2719;53.624;9.786;2024-03-07T11:43:15;5.90;99.90
5392;DHT22;2719;53.624;9.786;2024-03-07T11:45:42;6.00;99.90
5392;DHT22;2719;53.624;9.786;2024-03-07T11:48:17;6.00;99.90
5392;DHT22;2719;53.624;9.786;2024-03-07T11:50:45;6.10;99.90
5392;DHT22;2719;53.624;9.786;2024-03-07T11:53:12;6.20;99.90
5392;DHT22;2719;53.624;9.786;2024-03-07T11:55:39;6.10;99.90
5392;DHT22;2719;53.624;9.786;2024-03-07T11:58:14;6.20;99.90
5392;DHT22;2719;53.624;9.786;2024-03-07T12:00:43;6.20;99.90
5392;DHT22;2719;53.624;9.786;2024-03-07T12:03:11;6.30;99.90
5392;DHT22;2719;53.624;9.786;2024-03-07T12:05:43;6.40;99.90
5392;DHT22;2719;53.624;9.786;2024-03-07T12:08:11;6.50;99.90
5392;DHT22;2719;53.624;9.786;2024-03-07T12:10:38;6.50;99.90
5392;DHT22;2719;53.624;9.786;2024-03-07T12:13:06;6.60;99.90
5392;DHT22;2719;53.624;9.786;2024-03-07T12:15:33;6.40;99.90
5392;DHT22;2719;53.624;9.786;2024-03-07T12:18:02;6.40;99.90
5392;DHT22;2719;53.624;9.786;2024-03-07T12:20:34;6.50;99.90
5392;DHT22;2719;53.624;9.786;2024-03-07T12:23:01;6.80;1.00
5392;DHT22;2719;53.624;9.786;2024-03-07T12:25:29;6.90;99.90
5392;DHT22;2719;53.624;9.786;2024-03-07T12:28:06;6.90;99.90
5392;DHT22;2719;53.624;9.786;2024-03-07T12:30:47;6.90;99.90
5392;DHT22;2719;53.624;9.786;2024-03-07T12:33:17;6.90;1.00
5392;DHT22;2719;53.624;9.786;2024-03-07T12:35:45;7.00;99.90
5392;DHT22;2719;53.624;9.786;2024-03-07T12:38:13;6.90;99.90
5392;DHT22;2719;53.624;9.786;2024-03-07T12:40:41;6.90;99.90
5392;DHT22;2719;53.624;9.786;2024-03-07T12:43:16;6.80;99.90
5392;DHT22;2719;53.624;9.786;2024-03-07T12:45:44;6.80;99.90
5392;DHT22;2719;53.624;9.786;2024-03-07T12:48:11;6.80;99.90
5392;DHT22;2719;53.624;9.786;2024-03-07T12:50:41;6.80;99.90
5392;DHT22;2719;53.624;9.786;2024-03-07T12:53:08;6.90;99.90
5392;DHT22;2719;53.624;9.786;2024-03-07T12:55:37;6.90;99.90
5392;DHT22;2719;53.624;9.786;2024-03-07T12:58:07;6.90;99.90
5392;DHT22;2719;53.624;9.786;2024-03-07T13:00:34;6.90;99.90
5392;DHT22;2719;53.624;9.786;2024-03-07T13:03:01;6.90;99.90
5392;DHT22;2719;53.624;9.786;2024-03-07T13:05:28;6.90;99.90
5392;DHT22;2719;53.624;9.786;2024-03-07T13:07:56;6.90;99.90
5392;DHT22;2719;53.624;9.786;2024-03-07T13:10:23;7.00;99.90
5392;DHT22;2719;53.624;9.786;2024-03-07T13:12:49;7.10;99.90
5392;DHT22;2719;53.624;9.786;2024-03-07T13:15:17;7.00;99.90
5392;DHT22;2719;53.624;9.786;2024-03-07T13:17:47;6.90;86.80
5392;DHT22;2719;53.624;9.786;2024-03-07T13:20:15;6.90;99.90
5392;DHT22;2719;53.624;9.786;2024-03-07T13:22:43;6.90;99.90
5392;DHT22;2719;53.624;9.786;2024-03-07T13:25:16;6.90;99.90
5392;DHT22;2719;53.624;9.786;2024-03-07T13:27:52;6.80;99.90
5392;DHT22;2719;53.624;9.786;2024-03-07T13:30:21;6.90;99.90
5392;DHT22;2719;53.624;9.786;2024-03-07T13:32:53;6.90;99.90
5392;DHT22;2719;53.624;9.786;2024-03-07T13:35:20;6.90;99.90
5392;DHT22;2719;53.624;9.786;2024-03-07T13:37:48;7.00;99.90
5392;DHT22;2719;53.624;9.786;2024-03-07T13:40:16;7.00;99.90
5392;DHT22;2719;53.624;9.786;2024-03-07T13:42:50;7.10;99.90
5392;DHT22;2719;53.624;9.786;2024-03-07T13:45:18;7.20;80.50
5392;DHT22;2719;53.624;9.786;2024-03-07T13:47:46;7.20;85.80
5392;DHT22;2719;53.624;9.786;2024-03-07T13:50:14;7.30;74.80
5392;DHT22;2719;53.624;9.786;2024-03-07T13:52:40;7.20;91.50
5392;DHT22;2719;53.624;9.786;2024-03-07T13:55:20;7.10;99.90
5392;DHT22;2719;53.624;9.786;2024-03-07T13:57:51;7.20;99.90
5392;DHT22;2719;53.624;9.786;2024-03-07T14:00:35;7.10;98.20
5392;DHT22;2719;53.624;9.786;2024-03-07T14:03:22;7.10;96.90
5392;DHT22;2719;53.624;9.786;2024-03-07T14:05:57;7.20;83.90
5392;DHT22;2719;53.624;9.786;2024-03-07T14:12:04;7.30;47.50
5392;DHT22;2719;53.624;9.786;2024-03-07T14:18:06;7.30;46.00
5392;DHT22;2719;53.624;9.786;2024-03-07T14:20:56;7.30;32.80
5392;DHT22;2719;53.624;9.786;2024-03-07T14:23:41;7.40;13.70
5392;DHT22;2719;53.624;9.786;2024-03-07T14:26:39;7.70;2.70
5392;DHT22;2719;53.624;9.786;2024-03-07T14:29:22;7.90;1.00
5392;DHT22;2719;53.624;9.786;2024-03-07T14:31:53;8.20;1.00
5392;DHT22;2719;53.624;9.786;2024-03-07T14:34:29;8.30;1.00
5392;DHT22;2719;53.624;9.786;2024-03-07T14:37:09;8.40;1.00
5392;DHT22;2719;53.624;9.786;2024-03-07T14:39:37;8.50;1.00
5392;DHT22;2719;53.624;9.786;2024-03-07T14:42:05;8.60;1.00
5392;DHT22;2719;53.624;9.786;2024-03-07T14:44:36;8.60;1.00
5392;DHT22;2719;53.624;9.786;2024-03-07T14:47:06;8.60;1.00
5392;DHT22;2719;53.624;9.786;2024-03-07T14:49:37;8.60;1.00
5392;DHT22;2719;53.624;9.786;2024-03-07T14:52:05;8.80;1.00
5392;DHT22;2719;53.624;9.786;2024-03-07T14:54:36;9.00;1.00
5392;DHT22;2719;53.624;9.786;2024-03-07T14:57:03;9.00;1.00
5392;DHT22;2719;53.624;9.786;2024-03-07T14:59:30;9.10;1.00
5392;DHT22;2719;53.624;9.786;2024-03-07T15:01:58;9.10;1.00
5392;DHT22;2719;53.624;9.786;2024-03-07T15:04:26;9.00;1.00
5392;DHT22;2719;53.624;9.786;2024-03-07T15:06:55;9.00;1.00
5392;DHT22;2719;53.624;9.786;2024-03-07T15:09:22;8.90;1.00
5392;DHT22;2719;53.624;9.786;2024-03-07T15:11:49;8.80;1.00
5392;DHT22;2719;53.624;9.786;2024-03-07T15:14:15;8.80;1.00
5392;DHT22;2719;53.624;9.786;2024-03-07T15:16:42;8.80;1.00
5392;DHT22;2719;53.624;9.786;2024-03-07T15:19:10;8.90;1.00
5392;DHT22;2719;53.624;9.786;2024-03-07T15:21:38;9.00;1.00
5392;DHT22;2719;53.624;9.786;2024-03-07T15:24:06;9.00;1.00
5392;DHT22;2719;53.624;9.786;2024-03-07T15:26:32;9.00;1.00
5392;DHT22;2719;53.624;9.786;2024-03-07T15:29:00;9.20;1.00
5392;DHT22;2719;53.624;9.786;2024-03-07T15:31:27;9.20;1.00
5392;DHT22;2719;53.624;9.786;2024-03-07T15:33:54;9.20;1.00
5392;DHT22;2719;53.624;9.786;2024-03-07T15:36:22;9.30;1.00
5392;DHT22;2719;53.624;9.786;2024-03-07T15:38:49;9.30;1.00
5392;DHT22;2719;53.624;9.786;2024-03-07T15:41:16;9.40;1.00
5392;DHT22;2719;53.624;9.786;2024-03-07T15:43:42;9.40;1.00
5392;DHT22;2719;53.624;9.786;2024-03-07T15:46:10;9.40;1.00
5392;DHT22;2719;53.624;9.786;2024-03-07T15:48:38;9.30;1.00
5392;DHT22;2719;53.624;9.786;2024-03-07T15:51:05;9.20;1.00
5392;DHT22;2719;53.624;9.786;2024-03-07T15:53:38;9.30;1.00
5392;DHT22;2719;53.624;9.786;2024-03-07T15:56:06;9.10;1.00
5392;DHT22;2719;53.624;9.786;2024-03-07T15:58:33;9.20;1.00
5392;DHT22;2719;53.624;9.786;2024-03-07T16:01:00;9.20;1.00
5392;DHT22;2719;53.624;9.786;2024-03-07T16:03:26;9.10;1.00
5392;DHT22;2719;53.624;9.786;2024-03-07T16:05:53;9.10;1.00
5392;DHT22;2719;53.624;9.786;2024-03-07T16:08:22;9.00;1.00
5392;DHT22;2719;53.624;9.786;2024-03-07T16:10:51;9.00;1.00
5392;DHT22;2719;53.624;9.786;2024-03-07T16:13:18;8.90;1.00
5392;DHT22;2719;53.624;9.786;2024-03-07T16:15:45;8.90;1.00
5392;DHT22;2719;53.624;9.786;2024-03-07T16:18:12;8.80;1.00
5392;DHT22;2719;53.624;9.786;2024-03-07T16:20:39;8.70;1.00
5392;DHT22;2719;53.624;9.786;2024-03-07T16:23:07;8.60;1.00
5392;DHT22;2719;53.624;9.786;2024-03-07T16:25:36;8.50;1.00
5392;DHT22;2719;53.624;9.786;2024-03-07T16:28:05;8.40;1.00
5392;DHT22;2719;53.624;9.786;2024-03-07T16:30:33;8.40;1.00
5392;DHT22;2719;53.624;9.786;2024-03-07T16:33:00;8.30;1.00
5392;DHT22;2719;53.624;9.786;2024-03-07T16:35:28;8.40;10.80
5392;DHT22;2719;53.624;9.786;2024-03-07T16:37:56;8.30;20.80
5392;DHT22;2719;53.624;9.786;2024-03-07T16:40:24;8.30;21.00